Wetterdaten: Woche 20.04.20 - 26.04.20 (KW17)
Datum Zeit Temp. Aussen Temp. o. S. Temp +5cm Feuchte Auss Luftdruck Regen Sonnenschein Regendauer Solar Windben Empfang
20.04.2020 00:00 10,7 C 9,2 C 8,6 C 59 % 1019,7 hPa 0,0 l/m 0,00 h 0,00 h 0 W/m 6,9 km/h (2 Bft) 94,77 %
20.04.2020 01:00 9,6 C 8,1 C 7,5 C 61 % 1019,9 hPa 0,0 l/m 0,00 h 0,00 h 0 W/m 4,0 km/h (1 Bft) 98,93 %
20.04.2020 02:00 8,7 C 7,6 C 7,2 C 63 % 1019,7 hPa 0,0 l/m 0,00 h 0,00 h 0 W/m 6,1 km/h (2 Bft) 96,15 %
20.04.2020 03:00 8,2 C 7,0 C 6,6 C 63 % 1019,4 hPa 0,0 l/m 0,00 h 0,00 h 0 W/m 7,6 km/h (2 Bft) 99,36 %
20.04.2020 04:00 7,6 C 6,6 C 6,0 C 64 % 1019,6 hPa 0,0 l/m 0,00 h 0,00 h 0 W/m 7,7 km/h (2 Bft) 96,75 %
20.04.2020 05:00 7,0 C 5,6 C 5,1 C 65 % 1019,5 hPa 0,0 l/m 0,00 h 0,00 h 0 W/m 5,3 km/h (1 Bft) 96,50 %
20.04.2020 06:00 6,3 C 5,4 C 4,8 C 67 % 1019,3 hPa 0,0 l/m 0,00 h 0,00 h 9 W/m 7,4 km/h (2 Bft) 99,15 %
20.04.2020 07:00 6,4 C 6,1 C 5,5 C 68 % 1019,6 hPa 0,0 l/m 0,00 h 0,00 h 27 W/m 11,9 km/h (2 Bft) 97,72 %
20.04.2020 08:00 7,7 C 8,8 C 7,0 C 66 % 1019,9 hPa 0,0 l/m 0,23 h 0,00 h 109 W/m 12,1 km/h (2 Bft) 95,51 %
20.04.2020 09:00 11,1 C 15,6 C 14,7 C 58 % 1019,7 hPa 0,0 l/m 1,00 h 0,00 h 433 W/m 16,6 km/h (3 Bft) 99,10 %
20.04.2020 10:00 14,0 C 18,6 C 20,7 C 51 % 1019,6 hPa 0,0 l/m 1,00 h 0,00 h 615 W/m 16,6 km/h (3 Bft) 94,32 %
20.04.2020 11:00 15,9 C 20,7 C 16,2 C 49 % 1019,3 hPa 0,0 l/m 1,00 h 0,00 h 749 W/m 17,3 km/h (3 Bft) 96,44 %
20.04.2020 12:00 17,3 C 22,3 C 16,7 C 46 % 1019,1 hPa 0,0 l/m 0,78 h 0,00 h 825 W/m 18,7 km/h (3 Bft) 97,52 %
20.04.2020 13:00 18,6 C 23,2 C 22,1 C 43 % 1018,4 hPa 0,0 l/m 1,02 h 0,00 h 868 W/m 19,5 km/h (3 Bft) 98,02 %
20.04.2020 14:00 19,9 C 24,3 C 24,3 C 39 % 1017,5 hPa 0,0 l/m 1,00 h 0,00 h 853 W/m 19,8 km/h (4 Bft) 98,58 %
20.04.2020 15:00 20,4 C 23,6 C 20,7 C 38 % 1016,9 hPa 0,0 l/m 1,00 h 0,00 h 774 W/m 22,7 km/h (4 Bft) 97,15 %
20.04.2020 16:00 20,3 C 22,9 C 21,0 C 39 % 1016,2 hPa 0,0 l/m 1,00 h 0,00 h 651 W/m 22,1 km/h (4 Bft) 97,65 %
20.04.2020 17:00 19,8 C 21,8 C 21,1 C 39 % 1015,8 hPa 0,0 l/m 1,00 h 0,00 h 497 W/m 23,0 km/h (4 Bft) 97,22 %
20.04.2020 18:00 18,9 C 19,0 C 16,4 C 40 % 1015,8 hPa 0,0 l/m 0,70 h 0,00 h 248 W/m 21,0 km/h (4 Bft) 98,42 %
20.04.2020 19:00 17,3 C 16,3 C 14,4 C 41 % 1016,1 hPa 0,0 l/m 0,00 h 0,00 h 35 W/m 18,7 km/h (3 Bft) 97,65 %
20.04.2020 20:00 16,0 C 14,7 C 13,5 C 42 % 1016,7 hPa 0,0 l/m 0,00 h 0,00 h 13 W/m 15,0 km/h (3 Bft) 95,93 %
20.04.2020 21:00 14,6 C 13,3 C 12,3 C 44 % 1017,5 hPa 0,0 l/m 0,00 h 0,00 h 0 W/m 12,2 km/h (3 Bft) 97,72 %
20.04.2020 22:00 13,5 C 11,7 C 10,9 C 48 % 1018,1 hPa 0,0 l/m 0,00 h 0,00 h 0 W/m 7,5 km/h (2 Bft) 98,01 %
20.04.2020 23:00 11,7 C 10,1 C 9,3 C 56 % 1018,3 hPa 0,0 l/m 0,00 h 0,00 h 0 W/m 4,0 km/h (1 Bft) 95,03 %
21.04.2020 00:00 10,6 C 9,1 C 8,4 C 59 % 1018,5 hPa 0,0 l/m 0,00 h 0,00 h 0 W/m 2,7 km/h (1 Bft) 98,32 %
21.04.2020 01:00 9,4 C 7,9 C 7,3 C 62 % 1018,3 hPa 0,0 l/m 0,00 h 0,00 h 0 W/m 3,9 km/h (1 Bft) 98,22 %
21.04.2020 02:00 8,8 C 7,8 C 7,2 C 63 % 1017,9 hPa 0,0 l/m 0,00 h 0,00 h 0 W/m 5,6 km/h (1 Bft) 97,28 %
21.04.2020 03:00 8,4 C 7,3 C 6,7 C 63 % 1017,6 hPa 0,0 l/m 0,00 h 0,00 h 0 W/m 6,6 km/h (2 Bft) 95,42 %
21.04.2020 04:00 8,2 C 7,2 C 6,7 C 64 % 1017,6 hPa 0,0 l/m 0,00 h 0,00 h 0 W/m 10,2 km/h (2 Bft) 97,72 %
21.04.2020 05:00 7,9 C 6,8 C 6,2 C 65 % 1017,6 hPa 0,0 l/m 0,00 h 0,00 h 0 W/m 6,8 km/h (2 Bft) 96,39 %
21.04.2020 06:00 7,7 C 6,7 C 6,1 C 66 % 1017,6 hPa 0,0 l/m 0,00 h 0,00 h 10 W/m 7,7 km/h (2 Bft) 96,26 %
21.04.2020 07:00 7,9 C 7,5 C 6,7 C 67 % 1017,8 hPa 0,0 l/m 0,00 h 0,00 h 24 W/m 3,6 km/h (1 Bft) 96,51 %
21.04.2020 08:00 9,2 C 10,1 C 8,1 C 66 % 1018,0 hPa 0,0 l/m 0,20 h 0,00 h 104 W/m 8,4 km/h (2 Bft) 97,65 %
21.04.2020 09:00 12,1 C 16,4 C 15,6 C 59 % 1018,0 hPa 0,0 l/m 1,00 h 0,00 h 449 W/m 15,7 km/h (3 Bft) 96,65 %
21.04.2020 10:00 14,5 C 18,8 C 20,9 C 53 % 1017,9 hPa 0,0 l/m 1,00 h 0,00 h 622 W/m 18,0 km/h (3 Bft) 96,72 %
21.04.2020 11:00 16,5 C 21,0 C 16,9 C 49 % 1017,6 hPa 0,0 l/m 1,00 h 0,00 h 753 W/m 20,2 km/h (4 Bft) 99,78 %
21.04.2020 12:00 18,3 C 22,8 C 17,7 C 45 % 1017,1 hPa 0,0 l/m 1,00 h 0,00 h 839 W/m 22,7 km/h (4 Bft) 97,72 %
21.04.2020 13:00 19,7 C 24,1 C 23,0 C 42 % 1016,8 hPa 0,0 l/m 1,00 h 0,00 h 874 W/m 22,5 km/h (4 Bft) 97,72 %
21.04.2020 14:00 20,8 C 24,8 C 24,7 C 40 % 1016,6 hPa 0,0 l/m 1,00 h 0,00 h 853 W/m 20,0 km/h (4 Bft) 97,37 %
21.04.2020 15:00 21,1 C 24,2 C 21,3 C 39 % 1016,1 hPa 0,0 l/m 1,00 h 0,00 h 779 W/m 22,8 km/h (4 Bft) 97,50 %
21.04.2020 16:00 21,3 C 24,0 C 22,0 C 38 % 1015,6 hPa 0,0 l/m 1,00 h 0,00 h 659 W/m 22,6 km/h (4 Bft) 97,72 %
21.04.2020 17:00 21,3 C 23,2 C 22,4 C 38 % 1015,5 hPa 0,0 l/m 1,00 h 0,00 h 497 W/m 21,3 km/h (4 Bft) 97,02 %
21.04.2020 18:00 20,4 C 20,5 C 17,8 C 39 % 1015,6 hPa 0,0 l/m 0,73 h 0,00 h 251 W/m 19,6 km/h (3 Bft) 98,40 %
21.04.2020 19:00 18,7 C 17,4 C 16,4 C 43 % 1016,0 hPa 0,0 l/m 0,00 h 0,00 h 38 W/m 13,9 km/h (3 Bft) 97,29 %
21.04.2020 20:00 17,4 C 16,1 C 15,1 C 43 % 1016,7 hPa 0,0 l/m 0,00 h 0,00 h 14 W/m 12,5 km/h (3 Bft) 96,16 %
21.04.2020 21:00 15,9 C 14,3 C 13,4 C 47 % 1017,7 hPa 0,0 l/m 0,00 h 0,00 h 0 W/m 7,7 km/h (2 Bft) 99,72 %
21.04.2020 22:00 14,5 C 12,8 C 11,9 C 50 % 1018,2 hPa 0,0 l/m 0,00 h 0,00 h 0 W/m 3,5 km/h (1 Bft) 97,01 %
21.04.2020 23:00 12,7 C 11,0 C 10,3 C 56 % 1018,3 hPa 0,0 l/m 0,00 h 0,00 h 0 W/m 4,2 km/h (1 Bft) 94,50 %
22.04.2020 00:00 11,7 C 10,6 C 10,0 C 59 % 1018,7 hPa 0,0 l/m 0,00 h 0,00 h 0 W/m 4,8 km/h (1 Bft) 98,96 %
22.04.2020 01:00 11,4 C 10,3 C 9,6 C 60 % 1019,0 hPa 0,0 l/m 0,00 h 0,00 h 0 W/m 7,9 km/h (2 Bft) 97,51 %
22.04.2020 02:00 10,8 C 9,5 C 8,9 C 62 % 1019,1 hPa 0,0 l/m 0,00 h 0,00 h 0 W/m 4,0 km/h (1 Bft) 97,08 %
22.04.2020 03:00 9,9 C 8,4 C 7,8 C 65 % 1019,1 hPa 0,0 l/m 0,00 h 0,00 h 0 W/m 1,9 km/h (1 Bft) 97,18 %
22.04.2020 04:00 9,0 C 7,8 C 7,2 C 68 % 1019,3 hPa 0,0 l/m 0,00 h 0,00 h 0 W/m 2,1 km/h (1 Bft) 96,60 %
22.04.2020 05:00 8,5 C 7,3 C 6,7 C 70 % 1019,5 hPa 0,0 l/m 0,00 h 0,00 h 0 W/m 3,2 km/h (1 Bft) 97,01 %
22.04.2020 06:00 8,1 C 6,9 C 6,3 C 71 % 1019,8 hPa 0,0 l/m 0,00 h 0,00 h 10 W/m 1,8 km/h (1 Bft) 97,68 %
22.04.2020 07:00 8,1 C 7,9 C 6,8 C 73 % 1020,2 hPa 0,0 l/m 0,00 h 0,00 h 26 W/m 1,0 km/h (0 Bft) 95,83 %
22.04.2020 08:00 9,6 C 11,6 C 8,8 C 70 % 1020,4 hPa 0,0 l/m 0,20 h 0,00 h 103 W/m 5,2 km/h (1 Bft) 97,19 %
22.04.2020 09:00 13,5 C 18,5 C 19,1 C 59 % 1020,5 hPa 0,0 l/m 1,00 h 0,00 h 460 W/m 11,7 km/h (2 Bft) 97,15 %
22.04.2020 10:00 16,4 C 21,2 C 23,5 C 51 % 1020,5 hPa 0,0 l/m 1,00 h 0,00 h 630 W/m 12,8 km/h (3 Bft) 99,29 %
22.04.2020 11:00 18,3 C 23,4 C 18,9 C 48 % 1020,3 hPa 0,0 l/m 1,00 h 0,00 h 758 W/m 14,4 km/h (3 Bft) 99,22 %
22.04.2020 12:00 20,3 C 25,6 C 19,7 C 44 % 1019,8 hPa 0,0 l/m 1,00 h 0,00 h 844 W/m 15,2 km/h (3 Bft) 94,07 %
22.04.2020 13:00 21,7 C 26,7 C 25,4 C 41 % 1019,5 hPa 0,0 l/m 1,00 h 0,00 h 880 W/m 16,3 km/h (3 Bft) 97,71 %
22.04.2020 14:00 22,9 C 27,4 C 27,3 C 38 % 1019,1 hPa 0,0 l/m 1,00 h 0,00 h 861 W/m 16,6 km/h (3 Bft) 98,58 %
22.04.2020 15:00 23,5 C 27,2 C 23,7 C 37 % 1018,7 hPa 0,0 l/m 1,00 h 0,00 h 789 W/m 16,4 km/h (3 Bft) 97,08 %
22.04.2020 16:00 23,7 C 26,7 C 24,1 C 36 % 1018,2 hPa 0,0 l/m 1,00 h 0,00 h 672 W/m 17,3 km/h (3 Bft) 97,01 %
22.04.2020 17:00 23,6 C 25,6 C 24,4 C 35 % 1017,8 hPa 0,0 l/m 1,00 h 0,00 h 513 W/m 17,3 km/h (3 Bft) 97,86 %
22.04.2020 18:00 22,2 C 22,4 C 19,5 C 36 % 1017,9 hPa 0,0 l/m 0,77 h 0,00 h 272 W/m 16,9 km/h (3 Bft) 98,08 %
22.04.2020 19:00 20,4 C 19,1 C 16,6 C 39 % 1018,2 hPa 0,0 l/m 0,00 h 0,00 h 35 W/m 15,5 km/h (3 Bft) 96,37 %
22.04.2020 20:00 18,8 C 17,3 C 15,6 C 42 % 1018,5 hPa 0,0 l/m 0,00 h 0,00 h 14 W/m 13,0 km/h (3 Bft) 97,09 %
22.04.2020 21:00 17,1 C 15,3 C 14,1 C 45 % 1019,2 hPa 0,0 l/m 0,00 h 0,00 h 0 W/m 7,4 km/h (2 Bft) 98,65 %
22.04.2020 22:00 15,4 C 13,4 C 12,3 C 50 % 1019,8 hPa 0,0 l/m 0,00 h 0,00 h 0 W/m 2,0 km/h (1 Bft) 95,02 %
22.04.2020 23:00 14,0 C 12,1 C 11,1 C 53 % 1020,4 hPa 0,0 l/m 0,00 h 0,00 h 0 W/m 1,4 km/h (1 Bft) 98,08 %
23.04.2020 00:00 12,7 C 11,0 C 9,9 C 57 % 1020,6 hPa 0,0 l/m 0,00 h 0,00 h 0 W/m 0,2 km/h (0 Bft) 98,21 %
23.04.2020 01:00 11,6 C 9,2 C 8,0 C 60 % 1020,8 hPa 0,0 l/m 0,00 h 0,00 h 0 W/m 0,1 km/h (0 Bft) 95,56 %
23.04.2020 02:00 10,3 C 8,8 C 7,5 C 65 % 1020,8 hPa 0,0 l/m 0,00 h 0,00 h 0 W/m 0,0 km/h (0 Bft) 95,51 %
23.04.2020 03:00 9,3 C 7,1 C 6,3 C 68 % 1020,7 hPa 0,0 l/m 0,00 h 0,00 h 0 W/m 0,0 km/h (0 Bft) 97,01 %
23.04.2020 04:00 8,2 C 6,8 C 5,7 C 73 % 1020,6 hPa 0,0 l/m 0,00 h 0,00 h 0 W/m 0,0 km/h (0 Bft) 96,44 %
23.04.2020 05:00 7,6 C 6,2 C 5,4 C 76 % 1020,8 hPa 0,0 l/m 0,00 h 0,00 h 0 W/m 0,1 km/h (0 Bft) 95,13 %
23.04.2020 06:00 7,1 C 5,7 C 5,0 C 78 % 1020,9 hPa 0,0 l/m 0,00 h 0,00 h 10 W/m 0,0 km/h (0 Bft) 97,68 %
23.04.2020 07:00 6,8 C 6,8 C 5,5 C 81 % 1021,2 hPa 0,0 l/m 0,00 h 0,00 h 27 W/m 0,2 km/h (0 Bft) 96,01 %
23.04.2020 08:00 8,2 C 11,1 C 7,7 C 82 % 1021,4 hPa 0,0 l/m 0,17 h 0,00 h 99 W/m 1,5 km/h (1 Bft) 98,79 %
23.04.2020 09:00 13,7 C 19,9 C 19,8 C 65 % 1021,2 hPa 0,0 l/m 1,00 h 0,00 h 462 W/m 6,5 km/h (2 Bft) 97,93 %
23.04.2020 10:00 17,9 C 22,7 C 25,4 C 49 % 1020,9 hPa 0,0 l/m 1,00 h 0,00 h 631 W/m 14,0 km/h (3 Bft) 97,93 %
23.04.2020 11:00 20,0 C 24,2 C 20,6 C 44 % 1020,6 hPa 0,0 l/m 1,00 h 0,00 h 764 W/m 17,1 km/h (3 Bft) 97,22 %
23.04.2020 12:00 21,6 C 26,3 C 21,0 C 40 % 1020,2 hPa 0,0 l/m 1,00 h 0,00 h 851 W/m 16,7 km/h (3 Bft) 94,99 %
23.04.2020 13:00 22,9 C 27,6 C 26,4 C 38 % 1019,7 hPa 0,0 l/m 1,00 h 0,00 h 886 W/m 14,9 km/h (3 Bft) 99,50 %
23.04.2020 14:00 23,6 C 27,9 C 27,9 C 36 % 1019,1 hPa 0,0 l/m 1,00 h 0,00 h 867 W/m 16,3 km/h (3 Bft) 98,51 %
23.04.2020 15:00 23,9 C 27,8 C 23,8 C 36 % 1018,4 hPa 0,0 l/m 1,00 h 0,00 h 792 W/m 16,7 km/h (3 Bft) 95,09 %
23.04.2020 16:00 24,9 C 28,6 C 25,0 C 35 % 1017,6 hPa 0,0 l/m 1,00 h 0,00 h 670 W/m 12,4 km/h (3 Bft) 99,22 %
23.04.2020 17:00 25,3 C 27,1 C 26,0 C 33 % 1016,9 hPa 0,0 l/m 1,00 h 0,00 h 491 W/m 12,6 km/h (3 Bft) 97,73 %
23.04.2020 18:00 24,4 C 24,0 C 21,8 C 33 % 1016,4 hPa 0,0 l/m 0,67 h 0,00 h 234 W/m 10,8 km/h (2 Bft) 96,80 %
23.04.2020 19:00 23,2 C 21,7 C 20,3 C 35 % 1016,0 hPa 0,0 l/m 0,00 h 0,00 h 60 W/m 5,9 km/h (2 Bft) 97,22 %
23.04.2020 20:00 21,3 C 18,1 C 15,8 C 43 % 1016,0 hPa 0,0 l/m 0,00 h 0,00 h 17 W/m 0,5 km/h (0 Bft) 98,07 %
23.04.2020 21:00 17,4 C 13,7 C 12,5 C 54 % 1016,2 hPa 0,0 l/m 0,00 h 0,00 h 0 W/m 0,0 km/h (0 Bft) 97,87 %
23.04.2020 22:00 14,8 C 12,2 C 11,1 C 61 % 1016,0 hPa 0,0 l/m 0,00 h 0,00 h 0 W/m 0,0 km/h (0 Bft) 98,29 %
23.04.2020 23:00 13,2 C 11,1 C 9,8 C 64 % 1015,6 hPa 0,0 l/m 0,00 h 0,00 h 0 W/m 0,0 km/h (0 Bft) 95,02 %
24.04.2020 00:00 11,8 C 9,3 C 8,6 C 68 % 1015,3 hPa 0,0 l/m 0,00 h 0,00 h 0 W/m 0,0 km/h (0 Bft) 97,95 %
24.04.2020 01:00 10,5 C 8,4 C 7,7 C 72 % 1014,9 hPa 0,0 l/m 0,00 h 0,00 h 0 W/m 0,0 km/h (0 Bft) 99,15 %
24.04.2020 02:00 9,4 C 7,6 C 7,0 C 76 % 1014,4 hPa 0,0 l/m 0,00 h 0,00 h 0 W/m 0,0 km/h (0 Bft) 97,08 %
24.04.2020 03:00 8,6 C 6,9 C 6,4 C 80 % 1014,0 hPa 0,0 l/m 0,00 h 0,00 h 0 W/m 0,0 km/h (0 Bft) 96,01 %
24.04.2020 04:00 8,0 C 6,8 C 6,1 C 84 % 1013,8 hPa 0,0 l/m 0,00 h 0,00 h 0 W/m 0,0 km/h (0 Bft) 95,57 %
24.04.2020 05:00 7,7 C 6,6 C 5,8 C 87 % 1013,4 hPa 0,0 l/m 0,00 h 0,00 h 0 W/m 0,0 km/h (0 Bft) 98,00 %
24.04.2020 06:00 7,4 C 7,2 C 5,8 C 89 % 1013,2 hPa 0,0 l/m 0,00 h 0,00 h 13 W/m 0,1 km/h (0 Bft) 97,57 %
24.04.2020 07:00 7,9 C 8,7 C 7,9 C 90 % 1013,4 hPa 0,0 l/m 0,00 h 0,00 h 60 W/m 0,7 km/h (0 Bft) 97,86 %
24.04.2020 08:00 10,1 C 12,5 C 11,3 C 86 % 1013,6 hPa 0,0 l/m 0,30 h 0,00 h 171 W/m 4,5 km/h (1 Bft) 97,58 %
24.04.2020 09:00 13,8 C 18,2 C 17,5 C 77 % 1013,7 hPa 0,0 l/m 1,00 h 0,00 h 372 W/m 8,2 km/h (2 Bft) 98,00 %
24.04.2020 10:00 17,3 C 22,9 C 24,1 C 68 % 1013,7 hPa 0,0 l/m 1,00 h 0,00 h 561 W/m 8,6 km/h (2 Bft) 97,22 %
24.04.2020 11:00 19,7 C 25,4 C 21,3 C 61 % 1013,7 hPa 0,0 l/m 1,00 h 0,00 h 697 W/m 10,5 km/h (2 Bft) 94,80 %
24.04.2020 12:00 21,5 C 27,7 C 21,8 C 55 % 1013,5 hPa 0,0 l/m 1,00 h 0,00 h 819 W/m 14,2 km/h (3 Bft) 97,72 %
24.04.2020 13:00 22,5 C 27,9 C 26,4 C 49 % 1013,2 hPa 0,0 l/m 1,00 h 0,00 h 852 W/m 15,6 km/h (3 Bft) 98,08 %
24.04.2020 14:00 22,9 C 27,8 C 27,3 C 46 % 1013,0 hPa 0,0 l/m 1,00 h 0,00 h 821 W/m 18,0 km/h (3 Bft) 97,79 %
24.04.2020 15:00 23,5 C 27,9 C 23,1 C 44 % 1012,5 hPa 0,0 l/m 1,00 h 0,00 h 735 W/m 14,7 km/h (3 Bft) 98,22 %
24.04.2020 16:00 23,1 C 26,1 C 22,9 C 42 % 1012,0 hPa 0,0 l/m 1,00 h 0,00 h 607 W/m 19,2 km/h (3 Bft) 96,72 %
24.04.2020 17:00 22,0 C 22,9 C 22,1 C 43 % 1011,8 hPa 0,0 l/m 0,87 h 0,00 h 365 W/m 18,4 km/h (3 Bft) 97,72 %
24.04.2020 18:00 20,2 C 20,2 C 18,3 C 40 % 1011,9 hPa 0,0 l/m 0,83 h 0,00 h 242 W/m 18,9 km/h (3 Bft) 98,53 %
24.04.2020 19:00 18,3 C 17,0 C 16,3 C 43 % 1011,6 hPa 0,0 l/m 0,00 h 0,00 h 43 W/m 13,3 km/h (3 Bft) 97,44 %
24.04.2020 20:00 16,8 C 15,1 C 14,8 C 52 % 1011,7 hPa 0,0 l/m 0,00 h 0,00 h 15 W/m 9,2 km/h (2 Bft) 97,58 %
24.04.2020 21:00 15,0 C 13,3 C 12,9 C 59 % 1012,3 hPa 0,0 l/m 0,00 h 0,00 h 0 W/m 16,4 km/h (3 Bft) 96,65 %
24.04.2020 22:00 13,4 C 11,9 C 11,6 C 61 % 1012,8 hPa 0,0 l/m 0,00 h 0,00 h 0 W/m 15,8 km/h (3 Bft) 98,43 %
24.04.2020 23:00 12,0 C 10,0 C 9,9 C 68 % 1013,1 hPa 0,0 l/m 0,00 h 0,00 h 0 W/m 8,3 km/h (2 Bft) 97,27 %
25.04.2020 00:00 10,4 C 8,3 C 8,4 C 78 % 1013,4 hPa 0,0 l/m 0,00 h 0,00 h 0 W/m 7,3 km/h (2 Bft) 96,56 %
25.04.2020 01:00 8,8 C 7,1 C 7,3 C 84 % 1013,9 hPa 0,0 l/m 0,00 h 0,00 h 0 W/m 7,0 km/h (2 Bft) 95,73 %
25.04.2020 02:00 7,7 C 6,7 C 7,1 C 86 % 1014,2 hPa 0,0 l/m 0,00 h 0,00 h 0 W/m 9,7 km/h (2 Bft) 98,57 %
25.04.2020 03:00 7,6 C 6,8 C 7,1 C 85 % 1014,2 hPa 0,0 l/m 0,00 h 0,00 h 0 W/m 10,8 km/h (2 Bft) 99,29 %
25.04.2020 04:00 7,7 C 7,0 C 7,2 C 84 % 1014,5 hPa 0,0 l/m 0,00 h 0,00 h 0 W/m 8,5 km/h (2 Bft) 93,74 %
25.04.2020 05:00 7,7 C 7,2 C 7,2 C 83 % 1014,5 hPa 0,0 l/m 0,00 h 0,00 h 0 W/m 3,2 km/h (1 Bft) 96,11 %
25.04.2020 06:00 7,8 C 7,2 C 7,2 C 82 % 1014,5 hPa 0,0 l/m 0,00 h 0,00 h 8 W/m 1,6 km/h (1 Bft) 97,75 %
25.04.2020 07:00 8,0 C 7,7 C 7,6 C 80 % 1014,8 hPa 0,0 l/m 0,00 h 0,00 h 28 W/m 0,9 km/h (0 Bft) 97,08 %
25.04.2020 08:00 8,6 C 9,0 C 8,8 C 76 % 1015,2 hPa 0,0 l/m 0,00 h 0,00 h 109 W/m 1,4 km/h (1 Bft) 98,44 %
25.04.2020 09:00 9,3 C 9,7 C 9,7 C 73 % 1015,4 hPa 0,0 l/m 0,00 h 0,00 h 155 W/m 1,3 km/h (1 Bft) 95,25 %
25.04.2020 10:00 10,0 C 10,9 C 10,6 C 72 % 1015,7 hPa 0,0 l/m 0,00 h 0,00 h 207 W/m 1,9 km/h (1 Bft) 98,86 %
25.04.2020 11:00 10,9 C 13,6 C 12,2 C 68 % 1015,7 hPa 0,0 l/m 0,47 h 0,00 h 423 W/m 2,0 km/h (1 Bft) 98,36 %
25.04.2020 12:00 13,6 C 20,2 C 14,3 C 62 % 1015,3 hPa 0,0 l/m 0,97 h 0,00 h 856 W/m 3,7 km/h (1 Bft) 97,12 %
25.04.2020 13:00 15,6 C 21,5 C 20,0 C 56 % 1014,8 hPa 0,0 l/m 1,00 h 0,00 h 894 W/m 1,3 km/h (1 Bft) 99,64 %
25.04.2020 14:00 16,6 C 22,1 C 21,0 C 54 % 1014,3 hPa 0,0 l/m 1,00 h 0,00 h 869 W/m 2,0 km/h (1 Bft) 94,16 %
25.04.2020 15:00 17,7 C 22,6 C 17,5 C 52 % 1013,6 hPa 0,0 l/m 1,00 h 0,00 h 784 W/m 4,1 km/h (1 Bft) 99,07 %
25.04.2020 16:00 18,0 C 21,9 C 18,1 C 52 % 1012,9 hPa 0,0 l/m 1,00 h 0,00 h 667 W/m 3,9 km/h (1 Bft) 97,65 %
25.04.2020 17:00 18,3 C 21,1 C 18,7 C 50 % 1012,4 hPa 0,0 l/m 1,00 h 0,00 h 511 W/m 3,5 km/h (1 Bft) 97,51 %
25.04.2020 18:00 17,8 C 18,0 C 14,5 C 51 % 1012,0 hPa 0,0 l/m 0,83 h 0,00 h 290 W/m 3,3 km/h (1 Bft) 96,94 %
25.04.2020 19:00 15,7 C 14,0 C 13,1 C 56 % 1011,9 hPa 0,0 l/m 0,00 h 0,00 h 49 W/m 4,2 km/h (1 Bft) 97,29 %
25.04.2020 20:00 14,1 C 12,1 C 11,6 C 61 % 1012,0 hPa 0,0 l/m 0,00 h 0,00 h 17 W/m 0,0 km/h (0 Bft) 96,37 %
25.04.2020 21:00 12,3 C 10,0 C 9,5 C 65 % 1012,3 hPa 0,0 l/m 0,00 h 0,00 h 0 W/m 0,0 km/h (0 Bft) 99,65 %
25.04.2020 22:00 10,8 C 8,9 C 8,4 C 70 % 1012,4 hPa 0,0 l/m 0,00 h 0,00 h 0 W/m 0,4 km/h (0 Bft) 96,37 %
25.04.2020 23:00 9,8 C 7,7 C 7,1 C 72 % 1012,4 hPa 0,0 l/m 0,00 h 0,00 h 0 W/m 0,0 km/h (0 Bft) 97,65 %
26.04.2020 00:00 8,6 C 6,4 C 5,7 C 75 % 1012,6 hPa 0,0 l/m 0,00 h 0,00 h 0 W/m 0,1 km/h (0 Bft) 96,70 %
26.04.2020 01:00 7,8 C 6,6 C 5,8 C 82 % 1012,5 hPa 0,0 l/m 0,00 h 0,00 h 0 W/m 0,3 km/h (0 Bft) 95,80 %
26.04.2020 02:00 7,4 C 6,0 C 5,3 C 85 % 1012,5 hPa 0,0 l/m 0,00 h 0,00 h 0 W/m 0,3 km/h (0 Bft) 98,22 %
26.04.2020 03:00 6,8 C 5,4 C 4,7 C 86 % 1012,5 hPa 0,0 l/m 0,00 h 0,00 h 0 W/m 0,3 km/h (0 Bft) 97,13 %
26.04.2020 04:00 6,2 C 4,8 C 4,2 C 88 % 1012,5 hPa 0,0 l/m 0,00 h 0,00 h 0 W/m 0,0 km/h (0 Bft) 98,58 %
26.04.2020 05:00 5,6 C 4,2 C 3,7 C 89 % 1012,3 hPa 0,0 l/m 0,00 h 0,00 h 0 W/m 0,0 km/h (0 Bft) 94,88 %
26.04.2020 06:00 5,1 C 4,0 C 3,4 C 90 % 1012,2 hPa 0,0 l/m 0,00 h 0,00 h 11 W/m 0,0 km/h (0 Bft) 96,77 %
26.04.2020 07:00 5,1 C 5,1 C 4,1 C 93 % 1012,4 hPa 0,0 l/m 0,00 h 0,00 h 33 W/m 0,2 km/h (0 Bft) 96,86 %
26.04.2020 08:00 6,2 C 8,3 C 6,4 C 95 % 1012,5 hPa 0,0 l/m 0,37 h 0,00 h 137 W/m 0,8 km/h (0 Bft) 97,29 %
26.04.2020 09:00 10,1 C 16,9 C 18,1 C 91 % 1012,5 hPa 0,0 l/m 1,00 h 0,00 h 448 W/m 1,4 km/h (1 Bft) 94,83 %
26.04.2020 10:00 14,3 C 20,5 C 23,0 C 73 % 1012,7 hPa 0,0 l/m 1,00 h 0,00 h 622 W/m 1,9 km/h (1 Bft) 96,15 %
26.04.2020 11:00 17,0 C 23,2 C 18,0 C 62 % 1012,6 hPa 0,0 l/m 1,00 h 0,00 h 752 W/m 4,2 km/h (1 Bft) 95,65 %
26.04.2020 12:00 18,7 C 24,9 C 17,9 C 56 % 1012,3 hPa 0,0 l/m 1,00 h 0,00 h 845 W/m 4,0 km/h (1 Bft) 95,65 %
26.04.2020 13:00 19,9 C 25,5 C 24,5 C 52 % 1011,9 hPa 0,0 l/m 1,00 h 0,00 h 871 W/m 4,9 km/h (1 Bft) 97,64 %
26.04.2020 14:00 20,5 C 25,8 C 25,3 C 50 % 1011,4 hPa 0,0 l/m 1,00 h 0,00 h 853 W/m 6,2 km/h (2 Bft) 97,01 %
26.04.2020 15:00 20,7 C 25,2 C 19,9 C 47 % 1011,0 hPa 0,0 l/m 1,00 h 0,00 h 780 W/m 3,5 km/h (1 Bft) 98,86 %
26.04.2020 16:00 20,9 C 25,0 C 20,5 C 46 % 1010,5 hPa 0,0 l/m 1,00 h 0,00 h 669 W/m 6,4 km/h (2 Bft) 98,01 %
26.04.2020 17:00 21,5 C 24,1 C 21,4 C 43 % 1010,1 hPa 0,0 l/m 1,00 h 0,00 h 515 W/m 4,6 km/h (1 Bft) 95,66 %
26.04.2020 18:00 20,7 C 20,9 C 16,2 C 45 % 1010,0 hPa 0,0 l/m 0,87 h 0,00 h 297 W/m 3,7 km/h (1 Bft) 99,08 %
26.04.2020 19:00 18,3 C 16,4 C 14,5 C 51 % 1009,8 hPa 0,0 l/m 0,00 h 0,00 h 45 W/m 2,0 km/h (1 Bft) 97,65 %
26.04.2020 20:00 16,5 C 13,9 C 12,6 C 57 % 1009,9 hPa 0,0 l/m 0,00 h 0,00 h 16 W/m 0,0 km/h (0 Bft) 96,44 %
26.04.2020 21:00 14,5 C 11,7 C 10,5 C 61 % 1010,1 hPa 0,0 l/m 0,00 h 0,00 h 0 W/m 0,0 km/h (0 Bft) 97,22 %
26.04.2020 22:00 12,5 C 9,8 C 8,8 C 66 % 1010,3 hPa 0,0 l/m 0,00 h 0,00 h 0 W/m 0,0 km/h (0 Bft) 99,21 %
26.04.2020 23:00 10,8 C 8,4 C 7,5 C 68 % 1010,4 hPa 0,0 l/m 0,00 h 0,00 h 0 W/m 0,0 km/h (0 Bft) 96,37 %
Min-Datum _ 26.04.20 26.04.20 26.04.20 23.04.20 26.04.20 - - - - 20.04.20 25.04.20
_ Min-Zeit 07:08 05:38 05:38 17:08 19:28 - - - - 00:50 04:10
Minimum _ 4,9 C 3,9 C 3,3 C 32 % 1009,7 hPa - - - - 0,0 km/h (0 Bft) 42,11 %
Max-Datum _ 23.04.20 23.04.20 23.04.20 26.04.20 23.04.20 20.04.20 20.04.20 20.04.20 25.04.20 21.04.20 20.04.20
_ Max-Zeit 17:00 12:54 14:02 08:56 08:04 00:00 12:40 00:00 14:04 17:26 01:16
Maximum _ 25,5 C 29,4 C 32,8 C 96 % 1021,4 hPa 0,0 l/m 0,08 h 0,00 h 938 W/m 45,1 km/h
W-NW (6 Bft)
100,00 %
Durchschnitt _ 14,3 C 15,1 C 13,8 C 59 % 1016,1 hPa #0,0 l/m #66:58 h #0 min. 441 W/m 8,0 km/h (2 Bft) 97,25 %
© 2020 W. Hausmann